createdAt,value
2023-07-15T00:01:43.223Z,23.90
2023-07-15T00:04:14.796Z,23.80
2023-07-15T00:06:42.703Z,23.80
2023-07-15T00:09:16.233Z,23.70
2023-07-15T00:11:47.089Z,23.70
2023-07-15T00:14:22.841Z,23.60
2023-07-15T00:16:56.993Z,23.60
2023-07-15T00:19:30.632Z,23.60
2023-07-15T00:21:59.677Z,23.60
2023-07-15T00:24:28.916Z,23.50
2023-07-15T00:26:59.982Z,23.50
2023-07-15T00:29:28.466Z,23.40
2023-07-15T00:31:59.131Z,23.40
2023-07-15T00:34:31.101Z,23.40
2023-07-15T00:36:57.963Z,23.40
2023-07-15T00:39:24.814Z,23.40
2023-07-15T00:41:57.892Z,23.40
2023-07-15T00:44:24.718Z,23.30
2023-07-15T00:47:17.091Z,23.30
2023-07-15T00:49:47.298Z,23.30
2023-07-15T00:52:22.200Z,23.30
2023-07-15T00:54:54.705Z,23.30
2023-07-15T00:57:22.878Z,23.20
2023-07-15T00:59:59.271Z,23.30
2023-07-15T01:02:27.022Z,23.20
2023-07-15T01:04:53.953Z,23.20
2023-07-15T01:07:24.436Z,23.30
2023-07-15T01:09:53.572Z,23.20
2023-07-15T01:12:20.465Z,23.30
2023-07-15T01:14:50.504Z,23.30
2023-07-15T01:17:20.531Z,23.30
2023-07-15T01:19:50.917Z,23.20
2023-07-15T01:22:23.512Z,23.30
2023-07-15T01:24:56.039Z,23.20
2023-07-15T01:27:27.724Z,23.30
2023-07-15T01:29:56.786Z,23.20
2023-07-15T01:32:26.017Z,23.20
2023-07-15T01:34:55.094Z,23.20
2023-07-15T01:37:26.642Z,23.20
2023-07-15T01:39:56.143Z,23.10
2023-07-15T01:42:25.276Z,23.10
2023-07-15T01:44:55.156Z,23.10
2023-07-15T01:47:24.516Z,23.10
2023-07-15T01:49:51.406Z,23.00
2023-07-15T01:52:22.741Z,23.00
2023-07-15T01:54:53.815Z,23.00
2023-07-15T01:57:28.777Z,23.00
2023-07-15T01:59:58.764Z,23.00
2023-07-15T02:02:28.351Z,22.90
2023-07-15T02:05:03.090Z,22.90
2023-07-15T02:07:32.065Z,22.80
2023-07-15T02:10:01.915Z,22.80
2023-07-15T02:12:30.800Z,22.90
2023-07-15T02:14:57.669Z,22.80
2023-07-15T02:17:26.811Z,22.80
2023-07-15T02:20:00.587Z,22.80
2023-07-15T02:22:30.306Z,22.80
2023-07-15T02:24:57.204Z,22.80
2023-07-15T02:27:24.112Z,22.80
2023-07-15T02:29:55.598Z,22.80
2023-07-15T02:32:43.073Z,22.80
2023-07-15T02:35:14.967Z,22.80
2023-07-15T02:37:45.126Z,22.70
2023-07-15T02:40:14.790Z,22.70
2023-07-15T02:42:42.051Z,22.70
2023-07-15T02:45:12.002Z,22.70
2023-07-15T02:47:42.146Z,22.60
2023-07-15T02:50:10.660Z,22.60
2023-07-15T02:52:39.921Z,22.60
2023-07-15T02:55:08.356Z,22.60
2023-07-15T02:57:35.813Z,22.50
2023-07-15T03:00:10.486Z,22.50
2023-07-15T03:02:37.630Z,22.50
2023-07-15T03:05:07.013Z,22.50
2023-07-15T03:07:36.469Z,22.50
2023-07-15T03:10:07.566Z,22.40
2023-07-15T03:12:39.002Z,22.40
2023-07-15T03:15:08.411Z,22.40
2023-07-15T03:17:37.021Z,22.30
2023-07-15T03:20:21.327Z,22.30
2023-07-15T03:22:55.533Z,22.30
2023-07-15T03:25:23.299Z,22.20
2023-07-15T03:27:54.687Z,22.20
2023-07-15T03:30:22.144Z,22.20
2023-07-15T03:32:54.471Z,22.20
2023-07-15T03:35:26.108Z,22.20
2023-07-15T03:37:58.547Z,22.10
2023-07-15T03:40:27.789Z,22.10
2023-07-15T03:42:56.654Z,22.10
2023-07-15T03:45:23.505Z,22.20
2023-07-15T03:47:54.177Z,22.10
2023-07-15T03:50:23.773Z,22.10
2023-07-15T03:52:50.825Z,22.10
2023-07-15T03:55:20.295Z,22.00
2023-07-15T03:57:47.420Z,22.10
2023-07-15T04:00:19.331Z,22.10
2023-07-15T04:02:50.584Z,22.10
2023-07-15T04:05:22.252Z,22.00
2023-07-15T04:07:52.096Z,22.00
2023-07-15T04:10:18.993Z,22.00
2023-07-15T04:12:48.277Z,22.00
2023-07-15T04:15:15.192Z,22.00
2023-07-15T04:17:44.557Z,22.00
2023-07-15T04:20:15.961Z,22.00
2023-07-15T04:22:45.538Z,22.00
2023-07-15T04:25:13.185Z,22.00
2023-07-15T04:27:43.442Z,22.00
2023-07-15T04:30:11.482Z,22.00
2023-07-15T04:32:42.879Z,22.00
2023-07-15T04:35:09.965Z,22.00
2023-07-15T04:37:39.978Z,22.00
2023-07-15T04:40:11.602Z,22.10
2023-07-15T04:42:38.684Z,22.10
2023-07-15T04:45:08.602Z,22.10
2023-07-15T04:47:36.254Z,22.00
2023-07-15T04:50:03.524Z,22.00
2023-07-15T04:52:35.363Z,22.10
2023-07-15T04:55:05.470Z,22.10
2023-07-15T04:57:39.230Z,22.10
2023-07-15T05:00:12.519Z,22.10
2023-07-15T05:02:41.916Z,22.10
2023-07-15T05:05:09.364Z,22.10
2023-07-15T05:07:51.197Z,22.10
2023-07-15T05:10:25.397Z,22.10
2023-07-15T05:12:54.990Z,22.10
2023-07-15T05:15:24.396Z,22.10
2023-07-15T05:17:55.899Z,22.20
2023-07-15T05:20:28.164Z,22.20
2023-07-15T05:22:55.314Z,22.20
2023-07-15T05:25:22.291Z,22.20
2023-07-15T05:27:52.280Z,22.30
2023-07-15T05:30:20.424Z,22.30
2023-07-15T05:32:47.310Z,22.30
2023-07-15T05:35:17.482Z,22.40
2023-07-15T05:37:46.635Z,22.40
2023-07-15T05:40:16.461Z,22.50
2023-07-15T05:42:44.154Z,22.50
2023-07-15T05:45:12.483Z,22.60
2023-07-15T05:47:40.609Z,22.60
2023-07-15T05:50:11.197Z,22.60
2023-07-15T05:52:38.172Z,22.70
2023-07-15T05:55:06.271Z,22.70
2023-07-15T05:57:36.751Z,22.80
2023-07-15T06:00:09.711Z,22.90
2023-07-15T06:02:39.494Z,22.90
2023-07-15T06:05:12.058Z,23.00
2023-07-15T06:07:39.144Z,23.10
2023-07-15T06:10:06.731Z,23.20
2023-07-15T06:12:33.575Z,23.40
2023-07-15T06:15:10.336Z,23.40
2023-07-15T06:17:37.507Z,23.50
2023-07-15T06:20:07.127Z,23.70
2023-07-15T06:22:36.075Z,23.80
2023-07-15T06:25:05.524Z,23.90
2023-07-15T06:27:36.939Z,24.00
2023-07-15T06:30:07.835Z,24.00
2023-07-15T06:32:34.733Z,24.10
2023-07-15T06:35:04.850Z,24.10
2023-07-15T06:37:37.351Z,24.20
2023-07-15T06:40:08.159Z,24.20
2023-07-15T06:42:35.019Z,24.30
2023-07-15T06:45:04.579Z,24.30
2023-07-15T06:47:31.625Z,24.40
2023-07-15T06:49:58.454Z,24.50
2023-07-15T06:52:29.615Z,24.50
2023-07-15T06:54:56.666Z,24.70
2023-07-15T06:57:23.842Z,24.70
2023-07-15T06:59:50.704Z,24.80
2023-07-15T07:02:17.530Z,24.90
2023-07-15T07:04:44.454Z,25.00
2023-07-15T07:07:14.186Z,25.00
2023-07-15T07:09:46.223Z,25.10
2023-07-15T07:12:16.251Z,25.20
2023-07-15T07:14:47.735Z,25.40
2023-07-15T07:17:16.973Z,25.50
2023-07-15T07:19:44.210Z,25.70
2023-07-15T07:22:16.406Z,25.80
2023-07-15T07:24:43.293Z,25.90
2023-07-15T07:27:12.999Z,26.10
2023-07-15T07:29:44.883Z,26.20
2023-07-15T07:32:14.110Z,26.30
2023-07-15T07:34:41.079Z,26.40
2023-07-15T07:37:10.520Z,26.50
2023-07-15T07:39:39.583Z,26.60
2023-07-15T07:42:09.708Z,26.70
2023-07-15T07:44:36.605Z,26.80
2023-07-15T07:47:07.533Z,26.90
2023-07-15T07:49:38.754Z,27.00
2023-07-15T07:52:06.241Z,27.10
2023-07-15T07:54:36.173Z,27.20
2023-07-15T07:57:09.136Z,27.40
2023-07-15T07:59:38.209Z,27.50
2023-07-15T08:02:09.626Z,27.60
2023-07-15T08:04:39.136Z,27.80
2023-07-15T08:07:08.382Z,27.90
2023-07-15T08:09:37.350Z,28.10
2023-07-15T08:12:06.894Z,28.20
2023-07-15T08:14:36.275Z,28.30
2023-07-15T08:17:05.633Z,28.40
2023-07-15T08:19:32.684Z,28.60
2023-07-15T08:21:59.599Z,28.70
2023-07-15T08:24:28.685Z,28.70
2023-07-15T08:26:55.535Z,28.90
2023-07-15T08:29:24.713Z,29.00
2023-07-15T08:31:51.747Z,29.00
2023-07-15T08:34:20.953Z,29.20
2023-07-15T08:36:47.822Z,29.20
2023-07-15T08:39:17.022Z,29.30
2023-07-15T08:41:46.657Z,29.40
2023-07-15T08:44:15.844Z,29.40
2023-07-15T08:46:47.796Z,29.50
2023-07-15T08:49:19.688Z,29.60
2023-07-15T08:51:49.469Z,29.70
2023-07-15T08:54:17.166Z,29.80
2023-07-15T08:56:46.750Z,29.90
2023-07-15T08:59:19.557Z,30.00
2023-07-15T09:01:49.335Z,30.10
2023-07-15T09:04:23.221Z,30.20
2023-07-15T09:06:54.113Z,30.20
2023-07-15T09:09:38.133Z,30.30
2023-07-15T09:12:13.516Z,30.20
2023-07-15T09:14:54.276Z,30.20
2023-07-15T09:17:22.945Z,30.30
2023-07-15T09:19:52.757Z,30.30
2023-07-15T09:22:24.194Z,30.30
2023-07-15T09:24:53.251Z,30.30
2023-07-15T09:27:20.115Z,30.40
2023-07-15T09:29:50.825Z,30.50
2023-07-15T09:32:23.642Z,30.50
2023-07-15T09:34:55.882Z,30.50
2023-07-15T09:37:31.191Z,30.50
2023-07-15T09:40:09.120Z,30.50
2023-07-15T09:42:51.744Z,30.50
2023-07-15T09:45:40.382Z,30.40
2023-07-15T09:48:19.892Z,30.40
2023-07-15T09:50:46.803Z,30.30
2023-07-15T09:53:13.842Z,30.10
2023-07-15T09:55:48.106Z,30.00
2023-07-15T09:58:26.044Z,29.90
2023-07-15T10:01:08.983Z,29.80
2023-07-15T10:03:46.225Z,29.70
2023-07-15T10:06:14.197Z,29.60
2023-07-15T10:08:45.431Z,29.60
2023-07-15T10:11:15.121Z,29.50
2023-07-15T10:13:45.427Z,29.40
2023-07-15T10:16:17.369Z,29.30
2023-07-15T10:18:49.555Z,29.30
2023-07-15T10:21:16.761Z,29.30
2023-07-15T10:23:48.605Z,29.30
2023-07-15T10:26:22.177Z,29.30
2023-07-15T10:28:59.871Z,29.20
2023-07-15T10:31:27.222Z,29.20
2023-07-15T10:34:05.164Z,29.20
2023-07-15T10:36:48.842Z,29.10
2023-07-15T10:39:23.486Z,29.10
2023-07-15T10:41:56.486Z,29.10
2023-07-15T10:44:25.247Z,29.10
2023-07-15T10:47:02.135Z,29.10
2023-07-15T10:49:32.260Z,29.10
2023-07-15T10:51:59.641Z,29.10
2023-07-15T10:54:36.352Z,29.20
2023-07-15T10:57:15.555Z,29.20
2023-07-15T10:59:47.359Z,29.30
2023-07-15T11:02:14.640Z,29.40
2023-07-15T11:04:45.809Z,29.40
2023-07-15T11:07:14.877Z,29.50
2023-07-15T11:09:44.893Z,29.60
2023-07-15T11:12:17.628Z,29.70
2023-07-15T11:14:45.300Z,29.80
2023-07-15T11:17:19.501Z,29.80
2023-07-15T11:19:49.252Z,29.90
2023-07-15T11:22:18.730Z,29.90
2023-07-15T11:24:47.874Z,29.90
2023-07-15T11:27:20.553Z,30.00
2023-07-15T11:30:00.933Z,30.00
2023-07-15T11:32:29.623Z,30.00
2023-07-15T11:34:58.932Z,30.00
2023-07-15T11:37:26.902Z,30.00
2023-07-15T11:40:01.753Z,30.00
2023-07-15T11:42:31.983Z,30.00
2023-07-15T11:45:00.882Z,29.90
2023-07-15T11:47:27.928Z,30.00
2023-07-15T11:50:02.529Z,30.00
2023-07-15T11:52:43.158Z,29.90
2023-07-15T11:55:12.716Z,29.80
2023-07-15T11:57:48.609Z,29.90
2023-07-15T12:00:46.187Z,29.80
2023-07-15T12:03:18.944Z,29.80
2023-07-15T12:05:48.230Z,29.80
2023-07-15T12:08:20.551Z,29.80
2023-07-15T12:11:01.272Z,29.80
2023-07-15T12:13:30.173Z,29.80
2023-07-15T12:16:04.141Z,29.80
2023-07-15T12:18:33.409Z,29.70
2023-07-15T12:21:00.272Z,29.80
2023-07-15T12:23:29.224Z,29.80
2023-07-15T12:25:56.073Z,29.80
2023-07-15T12:28:23.006Z,29.90
2023-07-15T12:30:52.044Z,29.80
2023-07-15T12:33:21.445Z,29.90
2023-07-15T12:35:50.573Z,29.90
2023-07-15T12:38:22.202Z,29.90
2023-07-15T12:40:54.117Z,29.90
2023-07-15T12:43:30.304Z,30.00
2023-07-15T12:46:02.853Z,30.10
2023-07-15T12:48:30.742Z,30.20
2023-07-15T12:51:00.203Z,30.30
2023-07-15T12:53:27.642Z,30.50
2023-07-15T12:55:56.818Z,30.60
2023-07-15T12:58:28.791Z,30.60
2023-07-15T13:00:58.585Z,30.70
2023-07-15T13:03:25.902Z,30.80
2023-07-15T13:05:57.506Z,30.90
2023-07-15T13:08:26.741Z,31.10
2023-07-15T13:10:56.394Z,31.30
2023-07-15T13:13:26.011Z,31.30
2023-07-15T13:15:52.871Z,31.40
2023-07-15T13:18:20.165Z,31.40
2023-07-15T13:20:54.372Z,31.40
2023-07-15T13:23:24.140Z,31.40
2023-07-15T13:25:51.092Z,31.30
2023-07-15T13:28:19.904Z,31.10
2023-07-15T13:30:51.428Z,30.90
2023-07-15T13:33:18.394Z,30.70
2023-07-15T13:35:45.308Z,30.50
2023-07-15T13:38:12.208Z,30.30
2023-07-15T13:40:41.306Z,30.10
2023-07-15T13:43:08.223Z,29.90
2023-07-15T13:45:35.118Z,29.80
2023-07-15T13:48:02.153Z,29.70
2023-07-15T13:50:31.552Z,29.80
2023-07-15T13:53:00.507Z,29.90
2023-07-15T13:55:27.402Z,29.90
2023-07-15T13:57:54.373Z,29.90
2023-07-15T14:00:23.300Z,29.90
2023-07-15T14:02:52.682Z,29.90
2023-07-15T14:05:24.346Z,29.80
2023-07-15T14:07:51.837Z,29.60
2023-07-15T14:10:18.800Z,29.50
2023-07-15T14:12:47.874Z,29.30
2023-07-15T14:15:19.204Z,29.10
2023-07-15T14:17:46.153Z,28.90
2023-07-15T14:20:16.863Z,28.80
2023-07-15T14:22:50.451Z,28.60
2023-07-15T14:25:22.341Z,28.40
2023-07-15T14:27:51.563Z,28.20
2023-07-15T14:30:20.444Z,28.00
2023-07-15T14:32:47.276Z,27.90
2023-07-15T14:35:16.664Z,27.70
2023-07-15T14:37:43.553Z,27.60
2023-07-15T14:40:13.894Z,27.40
2023-07-15T14:42:43.066Z,27.30
2023-07-15T14:45:10.689Z,27.10
2023-07-15T14:47:43.463Z,27.00
2023-07-15T14:50:14.886Z,26.80
2023-07-15T14:52:46.310Z,26.70
2023-07-15T14:55:13.253Z,26.50
2023-07-15T14:57:42.335Z,26.30
2023-07-15T15:00:14.730Z,26.20
2023-07-15T15:02:46.903Z,26.00
2023-07-15T15:05:16.221Z,25.90
2023-07-15T15:07:43.171Z,25.70
2023-07-15T15:10:10.240Z,25.60
2023-07-15T15:12:37.161Z,25.50
2023-07-15T15:15:09.852Z,25.40
2023-07-15T15:17:36.773Z,25.20
2023-07-15T15:20:07.516Z,25.10
2023-07-15T15:22:34.714Z,25.00
2023-07-15T15:25:04.425Z,24.90
2023-07-15T15:27:32.059Z,24.80
2023-07-15T15:29:58.920Z,24.70
2023-07-15T15:32:25.940Z,24.70
2023-07-15T15:34:53.605Z,24.50
2023-07-15T15:37:25.413Z,24.60
2023-07-15T15:39:52.508Z,24.50
2023-07-15T15:42:21.911Z,24.40
2023-07-15T15:44:48.830Z,24.40
2023-07-15T15:47:20.077Z,24.40
2023-07-15T15:49:46.988Z,24.30
2023-07-15T15:52:14.159Z,24.30
2023-07-15T15:54:43.590Z,24.30
2023-07-15T15:57:12.744Z,24.20
2023-07-15T15:59:41.584Z,24.20
2023-07-15T16:02:16.150Z,24.20
2023-07-15T16:04:47.800Z,24.20
2023-07-15T16:07:22.727Z,24.10
2023-07-15T16:09:49.643Z,24.10
2023-07-15T16:12:18.867Z,24.10
2023-07-15T16:14:48.241Z,24.10
2023-07-15T16:17:15.096Z,24.10
2023-07-15T16:19:41.960Z,24.20
2023-07-15T16:22:10.844Z,24.20
2023-07-15T16:24:44.571Z,24.20
2023-07-15T16:27:16.360Z,24.20
2023-07-15T16:29:43.297Z,24.30
2023-07-15T16:32:12.823Z,24.40
2023-07-15T16:34:44.299Z,24.50
2023-07-15T16:37:13.291Z,24.60
2023-07-15T16:39:44.705Z,24.70
2023-07-15T16:42:11.596Z,24.80
2023-07-15T16:44:38.449Z,24.90
2023-07-15T16:47:05.344Z,24.90
2023-07-15T16:49:34.726Z,25.00
2023-07-15T16:52:01.597Z,25.10
2023-07-15T16:54:32.889Z,25.20
2023-07-15T16:57:05.423Z,25.30
2023-07-15T16:59:37.245Z,25.40
2023-07-15T17:02:06.690Z,25.40
2023-07-15T17:04:33.613Z,25.50
2023-07-15T17:07:00.552Z,25.50
2023-07-15T17:09:35.585Z,25.60
2023-07-15T17:12:11.038Z,25.60
2023-07-15T17:14:40.597Z,25.60
2023-07-15T17:17:09.730Z,25.70
2023-07-15T17:19:39.618Z,25.70
2023-07-15T17:22:09.008Z,25.70
2023-07-15T17:24:35.897Z,25.60
2023-07-15T17:27:02.926Z,25.60
2023-07-15T17:29:32.063Z,25.60
2023-07-15T17:31:59.128Z,25.60
2023-07-15T17:34:26.158Z,25.60
2023-07-15T17:36:53.011Z,25.60
2023-07-15T17:39:19.821Z,25.50
2023-07-15T17:41:46.778Z,25.50
2023-07-15T17:44:16.225Z,25.50
2023-07-15T17:46:43.039Z,25.40
2023-07-15T17:49:09.934Z,25.40
2023-07-15T17:51:36.795Z,25.50
2023-07-15T17:54:03.687Z,25.40
2023-07-15T17:56:30.584Z,25.40
2023-07-15T17:58:59.662Z,25.40
2023-07-15T18:01:31.636Z,25.40
2023-07-15T18:04:01.005Z,25.50
2023-07-15T18:06:32.572Z,25.50
2023-07-15T18:09:10.014Z,25.50
2023-07-15T18:11:40.036Z,25.50
2023-07-15T18:14:10.114Z,25.50
2023-07-15T18:16:37.089Z,25.50
2023-07-15T18:19:08.338Z,25.50
2023-07-15T18:21:35.290Z,25.50
2023-07-15T18:24:06.742Z,25.60
2023-07-15T18:26:35.753Z,25.60
2023-07-15T18:29:02.564Z,25.50
2023-07-15T18:31:33.002Z,25.50
2023-07-15T18:34:17.681Z,25.50
2023-07-15T18:36:52.436Z,25.50
2023-07-15T18:39:19.324Z,25.50
2023-07-15T18:41:48.473Z,25.50
2023-07-15T18:44:15.467Z,25.40
2023-07-15T18:46:44.770Z,25.40
2023-07-15T18:49:11.795Z,25.40
2023-07-15T18:51:41.334Z,25.40
2023-07-15T18:54:08.299Z,25.40
2023-07-15T18:56:42.238Z,25.40
2023-07-15T18:59:11.705Z,25.30
2023-07-15T19:01:38.709Z,25.30
2023-07-15T19:04:05.675Z,25.30
2023-07-15T19:06:39.617Z,25.30
2023-07-15T19:09:08.216Z,25.30
2023-07-15T19:11:37.574Z,25.30
2023-07-15T19:14:04.717Z,25.20
2023-07-15T19:16:32.209Z,25.20
2023-07-15T19:18:59.934Z,25.20
2023-07-15T19:21:28.843Z,25.20
2023-07-15T19:24:00.369Z,25.20
2023-07-15T19:26:29.460Z,25.20
2023-07-15T19:28:56.286Z,25.20
2023-07-15T19:31:23.296Z,25.20
2023-07-15T19:33:50.170Z,25.20
2023-07-15T19:36:22.114Z,25.10
2023-07-15T19:38:50.998Z,25.10
2023-07-15T19:41:20.132Z,25.10
2023-07-15T19:43:54.085Z,25.10
2023-07-15T19:46:23.395Z,25.10
2023-07-15T19:48:52.548Z,25.10
2023-07-15T19:51:35.301Z,25.10
2023-07-15T19:54:08.908Z,25.10
2023-07-15T19:56:35.875Z,25.10
2023-07-15T19:59:04.216Z,25.10
2023-07-15T20:01:36.044Z,25.00
2023-07-15T20:04:07.457Z,25.00
2023-07-15T20:06:38.959Z,25.00
2023-07-15T20:09:08.966Z,24.90
2023-07-15T20:11:35.866Z,24.80
2023-07-15T20:14:02.856Z,24.60
2023-07-15T20:16:32.419Z,24.60
2023-07-15T20:18:59.360Z,24.50
2023-07-15T20:21:28.519Z,24.30
2023-07-15T20:23:57.690Z,24.30
2023-07-15T20:26:24.550Z,24.10
2023-07-15T20:28:53.912Z,24.00
2023-07-15T20:31:23.390Z,24.00
2023-07-15T20:33:50.268Z,24.00
2023-07-15T20:36:21.460Z,23.90
2023-07-15T20:38:48.389Z,23.80
2023-07-15T20:41:19.066Z,23.80
2023-07-15T20:43:48.482Z,23.70
2023-07-15T20:46:15.617Z,23.70
2023-07-15T20:48:44.758Z,23.60
2023-07-15T20:51:11.705Z,23.60
2023-07-15T20:53:38.755Z,23.60
2023-07-15T20:56:06.570Z,23.50
2023-07-15T20:58:38.530Z,23.50
2023-07-15T21:01:05.463Z,23.50
2023-07-15T21:03:32.470Z,23.50
2023-07-15T21:06:07.471Z,23.40
2023-07-15T21:08:34.500Z,23.50
2023-07-15T21:11:10.621Z,23.40
2023-07-15T21:13:37.597Z,23.40
2023-07-15T21:16:11.735Z,23.40
2023-07-15T21:18:38.678Z,23.40
2023-07-15T21:21:05.722Z,23.40
2023-07-15T21:23:35.271Z,23.40
2023-07-15T21:26:06.049Z,23.40
2023-07-15T21:28:41.407Z,23.40
2023-07-15T21:31:11.435Z,23.50
2023-07-15T21:33:43.154Z,23.50
2023-07-15T21:36:10.030Z,23.50
2023-07-15T21:38:39.350Z,23.50
2023-07-15T21:41:06.306Z,23.50
2023-07-15T21:43:35.297Z,23.50
2023-07-15T21:46:06.759Z,23.50
2023-07-15T21:48:33.684Z,23.50
2023-07-15T21:51:02.240Z,23.50
2023-07-15T21:53:29.321Z,23.50
2023-07-15T21:55:58.536Z,23.50
2023-07-15T21:58:31.384Z,23.50
2023-07-15T22:00:59.870Z,23.50
2023-07-15T22:03:27.478Z,23.50
2023-07-15T22:05:57.292Z,23.50
2023-07-15T22:08:26.416Z,23.50
2023-07-15T22:10:53.331Z,23.50
2023-07-15T22:13:20.180Z,23.50
2023-07-15T22:15:48.500Z,23.50
2023-07-15T22:18:29.816Z,23.50
2023-07-15T22:21:04.302Z,23.50
2023-07-15T22:23:31.155Z,23.50
2023-07-15T22:26:00.522Z,23.50
2023-07-15T22:28:29.529Z,23.50
2023-07-15T22:30:56.521Z,23.50
2023-07-15T22:33:25.679Z,23.50
2023-07-15T22:35:54.858Z,23.50
2023-07-15T22:38:21.939Z,23.50
2023-07-15T22:40:52.932Z,23.50
2023-07-15T22:43:20.817Z,23.40
2023-07-15T22:45:55.281Z,23.40
2023-07-15T22:48:30.436Z,23.40
2023-07-15T22:51:01.930Z,23.40
2023-07-15T22:53:28.800Z,23.40
2023-07-15T22:55:58.002Z,23.40
2023-07-15T22:58:24.971Z,23.40
2023-07-15T23:00:58.176Z,23.30
2023-07-15T23:03:25.740Z,23.20
2023-07-15T23:05:54.790Z,23.20
2023-07-15T23:08:21.790Z,23.20
2023-07-15T23:10:53.131Z,23.20
2023-07-15T23:13:24.620Z,23.10
2023-07-15T23:16:11.080Z,23.10
2023-07-15T23:18:45.380Z,23.10
2023-07-15T23:21:12.883Z,23.10
2023-07-15T23:23:43.474Z,23.00
2023-07-15T23:26:15.786Z,23.00
2023-07-15T23:28:42.856Z,23.00
2023-07-15T23:31:09.746Z,22.90
2023-07-15T23:33:40.283Z,22.90
2023-07-15T23:36:07.134Z,22.90
2023-07-15T23:38:36.166Z,22.90
2023-07-15T23:41:10.451Z,22.90
2023-07-15T23:43:37.718Z,22.80
2023-07-15T23:46:06.673Z,22.80
2023-07-15T23:48:33.694Z,22.80
2023-07-15T23:51:05.363Z,22.80
2023-07-15T23:53:34.580Z,22.80
2023-07-15T23:56:01.418Z,22.80
2023-07-15T23:58:28.321Z,22.80
